Portada
METAR-TAF:

METAR-TAF

Aeropuertos :

Aeropuerto Internacional de Rota

Rota, Islas Marianas, Estados Unidos

latitud: 14-11N, longitud: 145-15E, altitud: 185 m

Observación

El informe se hizo hace 4 horas y 28 minutos, a las 07:50 UTC
Viento 8 kt del este-noreste
Temperatura 27°C
Humedad 79%
Presión 1011 hPa
Visibilidad: 11.3 km
Nubes dispersas a una altura de 1500 ft

METAR: PGRO 150750Z 07008KT 7SM SCT015 27/23 A2985 RMK LAST

Hora: 22:18 (12:18 UTC)

Pronóstico

El informe se hizo hace 6 horas y 50 minutos, a las 05:28 UTC
Pronóstico válido del 15 a las 06 UTC al 16 a las 06 UTC
Viento 11 kt del este-noreste
Visibilidad: 10 km
Nubes dispersas a una altura de 2000 ft
Nubes dispersas a una altura de 12000 ft
chaparrones en las proximidades,

TAF: PGRO 150528Z 1506/1606 06011KT P6SM VCSH SCT020 SCT120

Observaciones y pronósticos meteorológicos de más de 4000 aeropuertos (mensajes METAR y TAF).

Los puntos amarillos y rojos representan las estaciones disponibles.

Ponga el ratón en el punto deseado para ver el nombre de la estación.

Haga clic para ver las observaciones y los pronósticos meteorológicos.

Para cambiar el mapa : haga clic en los botones verdes con una cruz de color negro para hacer un zoom, en el botón verde con un guión para alejar o en las flechas verdes para mapas adyacentes.


METAR-TAF: